sensor_id;sensor_type;location;lat;lon;timestamp;P1;durP1;ratioP1;P2;durP2;ratioP2
30681;SDS011;17439;48.092;11.842;2023-08-30T00:00:49;6.50;;;4.90;;
30681;SDS011;17439;48.092;11.842;2023-08-30T00:03:16;5.03;;;4.50;;
30681;SDS011;17439;48.092;11.842;2023-08-30T00:05:42;6.72;;;5.03;;
30681;SDS011;17439;48.092;11.842;2023-08-30T00:08:09;6.18;;;5.13;;
30681;SDS011;17439;48.092;11.842;2023-08-30T00:10:36;9.47;;;6.07;;
30681;SDS011;17439;48.092;11.842;2023-08-30T00:13:03;6.15;;;4.95;;
30681;SDS011;17439;48.092;11.842;2023-08-30T00:15:30;7.88;;;5.22;;
30681;SDS011;17439;48.092;11.842;2023-08-30T00:17:57;6.85;;;5.35;;
30681;SDS011;17439;48.092;11.842;2023-08-30T00:20:23;7.45;;;5.32;;
30681;SDS011;17439;48.092;11.842;2023-08-30T00:22:50;14.32;;;6.88;;
30681;SDS011;17439;48.092;11.842;2023-08-30T00:25:17;7.10;;;5.65;;
30681;SDS011;17439;48.092;11.842;2023-08-30T00:27:44;7.68;;;6.38;;
30681;SDS011;17439;48.092;11.842;2023-08-30T00:30:10;9.20;;;5.85;;
30681;SDS011;17439;48.092;11.842;2023-08-30T00:32:38;7.38;;;5.32;;
30681;SDS011;17439;48.092;11.842;2023-08-30T00:35:05;7.90;;;6.13;;
30681;SDS011;17439;48.092;11.842;2023-08-30T00:37:32;7.90;;;5.87;;
30681;SDS011;17439;48.092;11.842;2023-08-30T00:39:59;8.88;;;6.47;;
30681;SDS011;17439;48.092;11.842;2023-08-30T00:42:26;8.40;;;5.82;;
30681;SDS011;17439;48.092;11.842;2023-08-30T00:44:53;10.43;;;6.05;;
30681;SDS011;17439;48.092;11.842;2023-08-30T00:47:20;8.15;;;5.90;;
30681;SDS011;17439;48.092;11.842;2023-08-30T00:49:47;8.77;;;6.72;;
30681;SDS011;17439;48.092;11.842;2023-08-30T00:52:14;11.70;;;6.47;;
30681;SDS011;17439;48.092;11.842;2023-08-30T00:54:42;8.87;;;7.00;;
30681;SDS011;17439;48.092;11.842;2023-08-30T00:57:09;9.88;;;7.47;;
30681;SDS011;17439;48.092;11.842;2023-08-30T00:59:36;8.82;;;7.05;;
30681;SDS011;17439;48.092;11.842;2023-08-30T01:02:03;9.13;;;6.93;;
30681;SDS011;17439;48.092;11.842;2023-08-30T01:04:32;9.80;;;7.50;;
30681;SDS011;17439;48.092;11.842;2023-08-30T01:06:59;8.88;;;6.93;;
30681;SDS011;17439;48.092;11.842;2023-08-30T01:09:25;8.25;;;6.20;;
30681;SDS011;17439;48.092;11.842;2023-08-30T01:14:48;10.95;;;6.43;;
30681;SDS011;17439;48.092;11.842;2023-08-30T01:17:17;9.35;;;6.28;;
30681;SDS011;17439;48.092;11.842;2023-08-30T01:19:50;13.80;;;7.53;;
30681;SDS011;17439;48.092;11.842;2023-08-30T01:30:36;8.05;;;5.63;;
30681;SDS011;17439;48.092;11.842;2023-08-30T01:33:05;8.48;;;6.70;;
30681;SDS011;17439;48.092;11.842;2023-08-30T01:35:34;8.02;;;6.32;;
30681;SDS011;17439;48.092;11.842;2023-08-30T01:38:02;6.77;;;5.13;;
30681;SDS011;17439;48.092;11.842;2023-08-30T01:40:30;7.35;;;5.95;;
30681;SDS011;17439;48.092;11.842;2023-08-30T01:43:03;8.18;;;6.03;;
30681;SDS011;17439;48.092;11.842;2023-08-30T01:45:35;7.30;;;5.55;;
30681;SDS011;17439;48.092;11.842;2023-08-30T01:48:07;7.57;;;5.18;;
30681;SDS011;17439;48.092;11.842;2023-08-30T01:50:38;5.72;;;4.78;;
30681;SDS011;17439;48.092;11.842;2023-08-30T01:53:07;9.10;;;6.30;;
30681;SDS011;17439;48.092;11.842;2023-08-30T01:55:36;7.95;;;5.68;;
30681;SDS011;17439;48.092;11.842;2023-08-30T01:58:05;11.25;;;6.43;;
30681;SDS011;17439;48.092;11.842;2023-08-30T02:00:37;8.15;;;5.97;;
30681;SDS011;17439;48.092;11.842;2023-08-30T02:03:07;7.20;;;5.13;;
30681;SDS011;17439;48.092;11.842;2023-08-30T02:05:35;7.38;;;5.50;;
30681;SDS011;17439;48.092;11.842;2023-08-30T02:08:07;6.30;;;4.80;;
30681;SDS011;17439;48.092;11.842;2023-08-30T02:10:41;6.90;;;5.20;;
30681;SDS011;17439;48.092;11.842;2023-08-30T02:13:11;5.45;;;4.22;;
30681;SDS011;17439;48.092;11.842;2023-08-30T02:15:38;6.38;;;4.95;;
30681;SDS011;17439;48.092;11.842;2023-08-30T02:18:09;7.15;;;4.78;;
30681;SDS011;17439;48.092;11.842;2023-08-30T02:20:36;5.80;;;4.55;;
30681;SDS011;17439;48.092;11.842;2023-08-30T02:23:03;6.30;;;4.53;;
30681;SDS011;17439;48.092;11.842;2023-08-30T02:25:42;6.53;;;4.82;;
30681;SDS011;17439;48.092;11.842;2023-08-30T02:28:09;6.15;;;4.53;;
30681;SDS011;17439;48.092;11.842;2023-08-30T02:30:38;6.88;;;4.88;;
30681;SDS011;17439;48.092;11.842;2023-08-30T02:33:05;6.65;;;4.68;;
30681;SDS011;17439;48.092;11.842;2023-08-30T02:35:32;6.78;;;4.90;;
30681;SDS011;17439;48.092;11.842;2023-08-30T02:37:58;6.20;;;4.68;;
30681;SDS011;17439;48.092;11.842;2023-08-30T02:40:25;5.45;;;4.68;;
30681;SDS011;17439;48.092;11.842;2023-08-30T02:42:52;6.78;;;5.20;;
30681;SDS011;17439;48.092;11.842;2023-08-30T02:45:19;5.90;;;4.70;;
30681;SDS011;17439;48.092;11.842;2023-08-30T02:47:47;5.93;;;4.32;;
30681;SDS011;17439;48.092;11.842;2023-08-30T02:52:41;5.90;;;4.63;;
30681;SDS011;17439;48.092;11.842;2023-08-30T02:55:07;6.45;;;5.07;;
30681;SDS011;17439;48.092;11.842;2023-08-30T02:57:34;6.38;;;5.05;;
30681;SDS011;17439;48.092;11.842;2023-08-30T03:00:01;6.78;;;5.40;;
30681;SDS011;17439;48.092;11.842;2023-08-30T03:02:28;5.60;;;4.22;;
30681;SDS011;17439;48.092;11.842;2023-08-30T03:04:55;9.77;;;5.15;;
30681;SDS011;17439;48.092;11.842;2023-08-30T03:07:22;5.78;;;3.67;;
30681;SDS011;17439;48.092;11.842;2023-08-30T03:09:51;5.50;;;3.95;;
30681;SDS011;17439;48.092;11.842;2023-08-30T03:12:19;8.88;;;5.18;;
30681;SDS011;17439;48.092;11.842;2023-08-30T03:14:46;7.32;;;4.60;;
30681;SDS011;17439;48.092;11.842;2023-08-30T03:17:13;6.43;;;4.88;;
30681;SDS011;17439;48.092;11.842;2023-08-30T03:19:40;5.70;;;4.35;;
30681;SDS011;17439;48.092;11.842;2023-08-30T03:22:08;5.78;;;4.32;;
30681;SDS011;17439;48.092;11.842;2023-08-30T03:24:34;6.65;;;4.22;;
30681;SDS011;17439;48.092;11.842;2023-08-30T03:27:01;5.20;;;4.05;;
30681;SDS011;17439;48.092;11.842;2023-08-30T03:29:28;8.55;;;4.60;;
30681;SDS011;17439;48.092;11.842;2023-08-30T03:31:55;5.82;;;4.00;;
30681;SDS011;17439;48.092;11.842;2023-08-30T03:34:22;5.97;;;4.13;;
30681;SDS011;17439;48.092;11.842;2023-08-30T03:36:50;5.15;;;4.43;;
30681;SDS011;17439;48.092;11.842;2023-08-30T03:39:16;5.05;;;3.90;;
30681;SDS011;17439;48.092;11.842;2023-08-30T03:41:43;5.43;;;4.15;;
30681;SDS011;17439;48.092;11.842;2023-08-30T03:44:10;5.63;;;4.30;;
30681;SDS011;17439;48.092;11.842;2023-08-30T03:46:36;5.60;;;3.70;;
30681;SDS011;17439;48.092;11.842;2023-08-30T03:49:03;6.28;;;4.28;;
30681;SDS011;17439;48.092;11.842;2023-08-30T03:51:30;4.88;;;3.97;;
30681;SDS011;17439;48.092;11.842;2023-08-30T03:53:57;4.70;;;4.15;;
30681;SDS011;17439;48.092;11.842;2023-08-30T03:56:23;6.82;;;4.15;;
30681;SDS011;17439;48.092;11.842;2023-08-30T03:58:50;4.75;;;3.50;;
30681;SDS011;17439;48.092;11.842;2023-08-30T04:01:17;5.07;;;3.80;;
30681;SDS011;17439;48.092;11.842;2023-08-30T04:03:44;6.03;;;4.28;;
30681;SDS011;17439;48.092;11.842;2023-08-30T04:06:10;4.38;;;3.50;;
30681;SDS011;17439;48.092;11.842;2023-08-30T04:08:37;6.30;;;3.53;;
30681;SDS011;17439;48.092;11.842;2023-08-30T04:11:04;5.35;;;3.85;;
30681;SDS011;17439;48.092;11.842;2023-08-30T04:13:31;4.80;;;3.50;;
30681;SDS011;17439;48.092;11.842;2023-08-30T04:15:57;4.15;;;3.08;;
30681;SDS011;17439;48.092;11.842;2023-08-30T04:18:24;4.43;;;3.20;;
30681;SDS011;17439;48.092;11.842;2023-08-30T04:20:52;3.80;;;3.35;;
30681;SDS011;17439;48.092;11.842;2023-08-30T04:23:18;3.90;;;2.65;;
30681;SDS011;17439;48.092;11.842;2023-08-30T04:25:45;4.32;;;2.92;;
30681;SDS011;17439;48.092;11.842;2023-08-30T04:28:12;4.32;;;2.88;;
30681;SDS011;17439;48.092;11.842;2023-08-30T04:30:39;6.00;;;3.47;;
30681;SDS011;17439;48.092;11.842;2023-08-30T04:33:07;3.60;;;3.15;;
30681;SDS011;17439;48.092;11.842;2023-08-30T04:35:34;4.05;;;2.95;;
30681;SDS011;17439;48.092;11.842;2023-08-30T04:38:01;3.80;;;3.10;;
30681;SDS011;17439;48.092;11.842;2023-08-30T04:40:28;4.40;;;3.22;;
30681;SDS011;17439;48.092;11.842;2023-08-30T04:42:55;3.40;;;3.07;;
30681;SDS011;17439;48.092;11.842;2023-08-30T04:45:23;4.07;;;3.13;;
30681;SDS011;17439;48.092;11.842;2023-08-30T04:47:50;5.63;;;3.58;;
30681;SDS011;17439;48.092;11.842;2023-08-30T04:50:17;3.65;;;2.45;;
30681;SDS011;17439;48.092;11.842;2023-08-30T04:52:43;3.53;;;2.80;;
30681;SDS011;17439;48.092;11.842;2023-08-30T04:55:10;5.35;;;3.03;;
30681;SDS011;17439;48.092;11.842;2023-08-30T04:57:37;3.90;;;2.83;;
30681;SDS011;17439;48.092;11.842;2023-08-30T05:00:04;4.32;;;2.70;;
30681;SDS011;17439;48.092;11.842;2023-08-30T05:02:32;2.97;;;2.63;;
30681;SDS011;17439;48.092;11.842;2023-08-30T05:05:04;4.28;;;2.65;;
30681;SDS011;17439;48.092;11.842;2023-08-30T05:07:31;2.88;;;2.53;;
30681;SDS011;17439;48.092;11.842;2023-08-30T05:09:58;3.28;;;2.45;;
30681;SDS011;17439;48.092;11.842;2023-08-30T05:12:25;3.13;;;2.70;;
30681;SDS011;17439;48.092;11.842;2023-08-30T05:14:52;5.18;;;3.78;;
30681;SDS011;17439;48.092;11.842;2023-08-30T05:17:19;2.97;;;2.67;;
30681;SDS011;17439;48.092;11.842;2023-08-30T05:19:45;3.53;;;2.95;;
30681;SDS011;17439;48.092;11.842;2023-08-30T05:22:13;4.15;;;3.13;;
30681;SDS011;17439;48.092;11.842;2023-08-30T05:24:40;3.85;;;3.15;;
30681;SDS011;17439;48.092;11.842;2023-08-30T05:27:06;3.42;;;2.80;;
30681;SDS011;17439;48.092;11.842;2023-08-30T05:29:39;3.90;;;3.20;;
30681;SDS011;17439;48.092;11.842;2023-08-30T05:32:06;3.83;;;3.17;;
30681;SDS011;17439;48.092;11.842;2023-08-30T05:34:53;4.47;;;3.30;;
30681;SDS011;17439;48.092;11.842;2023-08-30T05:37:38;3.85;;;2.60;;
30681;SDS011;17439;48.092;11.842;2023-08-30T05:40:37;3.83;;;3.20;;
30681;SDS011;17439;48.092;11.842;2023-08-30T05:43:03;2.75;;;2.45;;
30681;SDS011;17439;48.092;11.842;2023-08-30T05:45:30;5.65;;;2.92;;
30681;SDS011;17439;48.092;11.842;2023-08-30T05:47:57;3.58;;;2.20;;
30681;SDS011;17439;48.092;11.842;2023-08-30T05:50:23;3.83;;;2.75;;
30681;SDS011;17439;48.092;11.842;2023-08-30T05:52:50;3.65;;;2.88;;
30681;SDS011;17439;48.092;11.842;2023-08-30T05:55:17;3.67;;;2.67;;
30681;SDS011;17439;48.092;11.842;2023-08-30T05:57:44;5.32;;;3.55;;
30681;SDS011;17439;48.092;11.842;2023-08-30T06:00:11;4.63;;;3.17;;
30681;SDS011;17439;48.092;11.842;2023-08-30T06:02:41;4.05;;;3.40;;
30681;SDS011;17439;48.092;11.842;2023-08-30T06:05:08;3.72;;;3.10;;
30681;SDS011;17439;48.092;11.842;2023-08-30T06:07:35;6.03;;;3.47;;
30681;SDS011;17439;48.092;11.842;2023-08-30T06:10:01;4.93;;;3.22;;
30681;SDS011;17439;48.092;11.842;2023-08-30T06:12:28;4.40;;;3.58;;
30681;SDS011;17439;48.092;11.842;2023-08-30T06:14:55;3.85;;;3.03;;
30681;SDS011;17439;48.092;11.842;2023-08-30T06:17:22;5.20;;;3.38;;
30681;SDS011;17439;48.092;11.842;2023-08-30T06:19:49;5.18;;;3.42;;
30681;SDS011;17439;48.092;11.842;2023-08-30T06:22:15;4.50;;;2.97;;
30681;SDS011;17439;48.092;11.842;2023-08-30T06:24:42;4.47;;;3.33;;
30681;SDS011;17439;48.092;11.842;2023-08-30T06:27:09;4.88;;;3.08;;
30681;SDS011;17439;48.092;11.842;2023-08-30T06:29:35;4.97;;;3.60;;
30681;SDS011;17439;48.092;11.842;2023-08-30T06:32:02;4.32;;;3.65;;
30681;SDS011;17439;48.092;11.842;2023-08-30T06:34:29;5.05;;;3.78;;
30681;SDS011;17439;48.092;11.842;2023-08-30T06:36:57;4.45;;;3.47;;
30681;SDS011;17439;48.092;11.842;2023-08-30T06:39:23;4.50;;;3.72;;
30681;SDS011;17439;48.092;11.842;2023-08-30T06:41:50;6.05;;;3.10;;
30681;SDS011;17439;48.092;11.842;2023-08-30T06:44:18;4.22;;;3.30;;
30681;SDS011;17439;48.092;11.842;2023-08-30T06:46:45;4.60;;;3.05;;
30681;SDS011;17439;48.092;11.842;2023-08-30T06:49:12;5.43;;;3.55;;
30681;SDS011;17439;48.092;11.842;2023-08-30T06:51:39;4.15;;;3.40;;
30681;SDS011;17439;48.092;11.842;2023-08-30T06:54:05;7.15;;;3.25;;
30681;SDS011;17439;48.092;11.842;2023-08-30T06:56:32;6.35;;;3.63;;
30681;SDS011;17439;48.092;11.842;2023-08-30T06:58:59;6.20;;;3.13;;
30681;SDS011;17439;48.092;11.842;2023-08-30T07:01:25;3.03;;;2.60;;
30681;SDS011;17439;48.092;11.842;2023-08-30T07:03:52;4.22;;;3.35;;
30681;SDS011;17439;48.092;11.842;2023-08-30T07:06:19;3.92;;;2.83;;
30681;SDS011;17439;48.092;11.842;2023-08-30T07:08:46;3.95;;;3.47;;
30681;SDS011;17439;48.092;11.842;2023-08-30T07:11:12;3.72;;;3.00;;
30681;SDS011;17439;48.092;11.842;2023-08-30T07:13:57;4.00;;;3.03;;
30681;SDS011;17439;48.092;11.842;2023-08-30T07:16:24;4.25;;;3.33;;
30681;SDS011;17439;48.092;11.842;2023-08-30T07:18:51;5.72;;;3.65;;
30681;SDS011;17439;48.092;11.842;2023-08-30T07:21:17;4.85;;;3.38;;
30681;SDS011;17439;48.092;11.842;2023-08-30T07:23:44;5.07;;;3.92;;
30681;SDS011;17439;48.092;11.842;2023-08-30T07:26:11;4.47;;;3.42;;
30681;SDS011;17439;48.092;11.842;2023-08-30T07:28:37;5.88;;;3.67;;
30681;SDS011;17439;48.092;11.842;2023-08-30T07:31:04;3.10;;;2.70;;
30681;SDS011;17439;48.092;11.842;2023-08-30T07:33:32;5.43;;;3.53;;
30681;SDS011;17439;48.092;11.842;2023-08-30T07:35:58;4.68;;;3.58;;
30681;SDS011;17439;48.092;11.842;2023-08-30T07:38:25;4.05;;;3.33;;
30681;SDS011;17439;48.092;11.842;2023-08-30T07:40:53;7.90;;;3.90;;
30681;SDS011;17439;48.092;11.842;2023-08-30T07:43:19;4.22;;;3.28;;
30681;SDS011;17439;48.092;11.842;2023-08-30T07:45:46;3.10;;;2.80;;
30681;SDS011;17439;48.092;11.842;2023-08-30T07:48:13;3.40;;;3.03;;
30681;SDS011;17439;48.092;11.842;2023-08-30T07:50:40;4.78;;;3.70;;
30681;SDS011;17439;48.092;11.842;2023-08-30T07:53:07;4.63;;;3.80;;
30681;SDS011;17439;48.092;11.842;2023-08-30T07:55:34;4.07;;;2.95;;
30681;SDS011;17439;48.092;11.842;2023-08-30T07:58:00;6.25;;;3.25;;
30681;SDS011;17439;48.092;11.842;2023-08-30T08:00:27;4.25;;;3.20;;
30681;SDS011;17439;48.092;11.842;2023-08-30T08:02:54;4.20;;;3.03;;
30681;SDS011;17439;48.092;11.842;2023-08-30T08:05:20;5.07;;;3.38;;
30681;SDS011;17439;48.092;11.842;2023-08-30T08:07:51;9.25;;;4.28;;
30681;SDS011;17439;48.092;11.842;2023-08-30T08:10:19;4.40;;;3.50;;
30681;SDS011;17439;48.092;11.842;2023-08-30T08:12:46;3.95;;;3.17;;
30681;SDS011;17439;48.092;11.842;2023-08-30T08:15:12;4.85;;;3.53;;
30681;SDS011;17439;48.092;11.842;2023-08-30T08:17:39;3.70;;;2.92;;
30681;SDS011;17439;48.092;11.842;2023-08-30T08:20:06;3.63;;;2.88;;
30681;SDS011;17439;48.092;11.842;2023-08-30T08:22:33;3.00;;;2.67;;
30681;SDS011;17439;48.092;11.842;2023-08-30T08:25:00;4.15;;;3.40;;
30681;SDS011;17439;48.092;11.842;2023-08-30T08:27:26;3.88;;;2.78;;
30681;SDS011;17439;48.092;11.842;2023-08-30T08:29:53;3.90;;;2.78;;
30681;SDS011;17439;48.092;11.842;2023-08-30T08:32:20;4.35;;;3.72;;
30681;SDS011;17439;48.092;11.842;2023-08-30T08:34:46;4.93;;;3.40;;
30681;SDS011;17439;48.092;11.842;2023-08-30T08:37:13;4.85;;;2.60;;
30681;SDS011;17439;48.092;11.842;2023-08-30T08:39:40;3.85;;;3.10;;
30681;SDS011;17439;48.092;11.842;2023-08-30T08:42:06;4.88;;;3.08;;
30681;SDS011;17439;48.092;11.842;2023-08-30T08:44:33;2.90;;;2.50;;
30681;SDS011;17439;48.092;11.842;2023-08-30T08:47:02;7.97;;;3.60;;
30681;SDS011;17439;48.092;11.842;2023-08-30T08:49:29;5.38;;;3.38;;
30681;SDS011;17439;48.092;11.842;2023-08-30T08:51:56;3.55;;;3.00;;
30681;SDS011;17439;48.092;11.842;2023-08-30T08:54:23;3.65;;;3.17;;
30681;SDS011;17439;48.092;11.842;2023-08-30T08:56:52;3.88;;;2.92;;
30681;SDS011;17439;48.092;11.842;2023-08-30T08:59:19;2.95;;;2.35;;
30681;SDS011;17439;48.092;11.842;2023-08-30T09:04:15;4.47;;;3.50;;
30681;SDS011;17439;48.092;11.842;2023-08-30T09:06:41;4.20;;;3.78;;
30681;SDS011;17439;48.092;11.842;2023-08-30T09:09:08;3.53;;;3.22;;
30681;SDS011;17439;48.092;11.842;2023-08-30T09:11:35;3.87;;;3.47;;
30681;SDS011;17439;48.092;11.842;2023-08-30T09:14:16;4.82;;;3.05;;
30681;SDS011;17439;48.092;11.842;2023-08-30T09:16:53;3.80;;;2.97;;
30681;SDS011;17439;48.092;11.842;2023-08-30T09:19:24;4.05;;;2.65;;
30681;SDS011;17439;48.092;11.842;2023-08-30T09:21:53;2.63;;;2.25;;
30681;SDS011;17439;48.092;11.842;2023-08-30T09:24:21;3.72;;;3.13;;
30681;SDS011;17439;48.092;11.842;2023-08-30T09:26:49;3.38;;;2.80;;
30681;SDS011;17439;48.092;11.842;2023-08-30T09:29:21;3.20;;;2.88;;
30681;SDS011;17439;48.092;11.842;2023-08-30T09:31:52;2.33;;;2.13;;
30681;SDS011;17439;48.092;11.842;2023-08-30T09:34:22;3.60;;;3.10;;
30681;SDS011;17439;48.092;11.842;2023-08-30T09:36:52;2.88;;;2.63;;
30681;SDS011;17439;48.092;11.842;2023-08-30T09:39:20;3.72;;;2.85;;
30681;SDS011;17439;48.092;11.842;2023-08-30T09:41:48;2.83;;;2.42;;
30681;SDS011;17439;48.092;11.842;2023-08-30T09:44:17;3.15;;;2.20;;
30681;SDS011;17439;48.092;11.842;2023-08-30T09:46:50;3.70;;;2.05;;
30681;SDS011;17439;48.092;11.842;2023-08-30T09:49:23;3.03;;;2.63;;
30681;SDS011;17439;48.092;11.842;2023-08-30T09:51:51;2.67;;;2.15;;
30681;SDS011;17439;48.092;11.842;2023-08-30T09:54:23;3.08;;;2.30;;
30681;SDS011;17439;48.092;11.842;2023-08-30T09:56:54;2.70;;;2.17;;
30681;SDS011;17439;48.092;11.842;2023-08-30T09:59:21;3.70;;;2.70;;
30681;SDS011;17439;48.092;11.842;2023-08-30T10:01:48;2.00;;;1.77;;
30681;SDS011;17439;48.092;11.842;2023-08-30T10:04:16;2.92;;;2.60;;
30681;SDS011;17439;48.092;11.842;2023-08-30T10:06:45;4.57;;;2.22;;
30681;SDS011;17439;48.092;11.842;2023-08-30T10:09:13;2.47;;;2.20;;
30681;SDS011;17439;48.092;11.842;2023-08-30T10:11:44;2.42;;;2.22;;
30681;SDS011;17439;48.092;11.842;2023-08-30T10:14:12;3.92;;;2.28;;
30681;SDS011;17439;48.092;11.842;2023-08-30T10:16:46;4.38;;;2.40;;
30681;SDS011;17439;48.092;11.842;2023-08-30T10:19:24;4.30;;;2.45;;
30681;SDS011;17439;48.092;11.842;2023-08-30T10:24:29;2.13;;;1.75;;
30681;SDS011;17439;48.092;11.842;2023-08-30T10:27:10;2.35;;;2.00;;
30681;SDS011;17439;48.092;11.842;2023-08-30T10:29:39;1.92;;;1.58;;
30681;SDS011;17439;48.092;11.842;2023-08-30T10:32:07;2.50;;;1.60;;
30681;SDS011;17439;48.092;11.842;2023-08-30T10:34:35;3.80;;;2.13;;
30681;SDS011;17439;48.092;11.842;2023-08-30T10:37:03;3.03;;;1.95;;
30681;SDS011;17439;48.092;11.842;2023-08-30T10:39:33;5.25;;;2.50;;
30681;SDS011;17439;48.092;11.842;2023-08-30T10:42:00;3.80;;;1.83;;
30681;SDS011;17439;48.092;11.842;2023-08-30T10:44:27;2.38;;;1.90;;
30681;SDS011;17439;48.092;11.842;2023-08-30T10:46:54;3.53;;;1.75;;
30681;SDS011;17439;48.092;11.842;2023-08-30T10:49:22;2.65;;;1.50;;
30681;SDS011;17439;48.092;11.842;2023-08-30T10:51:57;1.50;;;1.40;;
30681;SDS011;17439;48.092;11.842;2023-08-30T10:54:35;1.65;;;1.15;;
30681;SDS011;17439;48.092;11.842;2023-08-30T10:57:03;1.85;;;1.30;;
30681;SDS011;17439;48.092;11.842;2023-08-30T10:59:30;1.13;;;1.02;;
30681;SDS011;17439;48.092;11.842;2023-08-30T11:02:00;1.05;;;0.95;;
30681;SDS011;17439;48.092;11.842;2023-08-30T11:04:27;1.30;;;1.20;;
30681;SDS011;17439;48.092;11.842;2023-08-30T11:06:54;1.40;;;0.90;;
30681;SDS011;17439;48.092;11.842;2023-08-30T11:09:22;0.98;;;0.82;;
30681;SDS011;17439;48.092;11.842;2023-08-30T11:11:50;1.52;;;1.33;;
30681;SDS011;17439;48.092;11.842;2023-08-30T11:14:18;1.63;;;1.20;;
30681;SDS011;17439;48.092;11.842;2023-08-30T11:16:45;1.90;;;1.05;;
30681;SDS011;17439;48.092;11.842;2023-08-30T11:19:12;1.77;;;1.30;;
30681;SDS011;17439;48.092;11.842;2023-08-30T11:21:39;1.25;;;1.02;;
30681;SDS011;17439;48.092;11.842;2023-08-30T11:24:10;1.58;;;1.30;;
30681;SDS011;17439;48.092;11.842;2023-08-30T11:26:37;2.15;;;1.45;;
30681;SDS011;17439;48.092;11.842;2023-08-30T11:29:06;3.95;;;1.10;;
30681;SDS011;17439;48.092;11.842;2023-08-30T11:31:34;1.30;;;1.00;;
30681;SDS011;17439;48.092;11.842;2023-08-30T11:34:01;0.95;;;0.90;;
30681;SDS011;17439;48.092;11.842;2023-08-30T11:36:29;1.38;;;1.27;;
30681;SDS011;17439;48.092;11.842;2023-08-30T11:38:58;3.45;;;0.95;;
30681;SDS011;17439;48.092;11.842;2023-08-30T11:41:24;2.17;;;1.10;;
30681;SDS011;17439;48.092;11.842;2023-08-30T11:43:52;2.30;;;1.08;;
30681;SDS011;17439;48.092;11.842;2023-08-30T11:46:20;0.93;;;0.90;;
30681;SDS011;17439;48.092;11.842;2023-08-30T11:48:48;1.02;;;0.88;;
30681;SDS011;17439;48.092;11.842;2023-08-30T11:51:16;1.50;;;0.90;;
30681;SDS011;17439;48.092;11.842;2023-08-30T11:53:44;2.30;;;1.20;;
30681;SDS011;17439;48.092;11.842;2023-08-30T11:56:12;3.15;;;1.27;;
30681;SDS011;17439;48.092;11.842;2023-08-30T11:58:39;1.77;;;0.90;;
30681;SDS011;17439;48.092;11.842;2023-08-30T12:01:06;2.47;;;1.05;;
30681;SDS011;17439;48.092;11.842;2023-08-30T12:03:34;1.55;;;1.08;;
30681;SDS011;17439;48.092;11.842;2023-08-30T12:06:01;1.52;;;0.82;;
30681;SDS011;17439;48.092;11.842;2023-08-30T12:08:30;1.83;;;1.08;;
30681;SDS011;17439;48.092;11.842;2023-08-30T12:10:57;1.23;;;0.90;;
30681;SDS011;17439;48.092;11.842;2023-08-30T12:15:56;0.70;;;0.70;;
30681;SDS011;17439;48.092;11.842;2023-08-30T12:18:23;2.08;;;1.17;;
30681;SDS011;17439;48.092;11.842;2023-08-30T12:20:54;1.30;;;1.10;;
30681;SDS011;17439;48.092;11.842;2023-08-30T12:23:23;1.23;;;0.90;;
30681;SDS011;17439;48.092;11.842;2023-08-30T12:28:34;2.95;;;0.80;;
30681;SDS011;17439;48.092;11.842;2023-08-30T12:31:02;1.45;;;0.98;;
30681;SDS011;17439;48.092;11.842;2023-08-30T12:33:29;1.80;;;0.90;;
30681;SDS011;17439;48.092;11.842;2023-08-30T12:35:57;2.05;;;0.90;;
30681;SDS011;17439;48.092;11.842;2023-08-30T12:38:24;1.05;;;0.80;;
30681;SDS011;17439;48.092;11.842;2023-08-30T12:40:52;2.70;;;1.40;;
30681;SDS011;17439;48.092;11.842;2023-08-30T12:43:20;0.70;;;0.70;;
30681;SDS011;17439;48.092;11.842;2023-08-30T12:45:48;3.35;;;0.98;;
30681;SDS011;17439;48.092;11.842;2023-08-30T12:48:16;1.23;;;1.00;;
30681;SDS011;17439;48.092;11.842;2023-08-30T12:50:45;2.42;;;0.90;;
30681;SDS011;17439;48.092;11.842;2023-08-30T12:53:13;3.95;;;1.08;;
30681;SDS011;17439;48.092;11.842;2023-08-30T12:55:41;0.73;;;0.63;;
30681;SDS011;17439;48.092;11.842;2023-08-30T12:58:07;4.22;;;1.45;;
30681;SDS011;17439;48.092;11.842;2023-08-30T13:00:35;1.13;;;0.80;;
30681;SDS011;17439;48.092;11.842;2023-08-30T13:03:02;2.13;;;1.00;;
30681;SDS011;17439;48.092;11.842;2023-08-30T13:05:29;1.23;;;1.02;;
30681;SDS011;17439;48.092;11.842;2023-08-30T13:07:55;1.77;;;0.55;;
30681;SDS011;17439;48.092;11.842;2023-08-30T13:10:22;1.92;;;0.90;;
30681;SDS011;17439;48.092;11.842;2023-08-30T13:12:49;0.55;;;0.50;;
30681;SDS011;17439;48.092;11.842;2023-08-30T13:15:16;1.08;;;0.95;;
30681;SDS011;17439;48.092;11.842;2023-08-30T13:17:42;1.50;;;0.68;;
30681;SDS011;17439;48.092;11.842;2023-08-30T13:20:09;1.92;;;1.10;;
30681;SDS011;17439;48.092;11.842;2023-08-30T13:22:36;1.48;;;1.10;;
30681;SDS011;17439;48.092;11.842;2023-08-30T13:25:03;1.50;;;1.25;;
30681;SDS011;17439;48.092;11.842;2023-08-30T13:27:30;1.20;;;1.07;;
30681;SDS011;17439;48.092;11.842;2023-08-30T13:29:57;0.63;;;0.57;;
30681;SDS011;17439;48.092;11.842;2023-08-30T13:32:23;1.17;;;0.80;;
30681;SDS011;17439;48.092;11.842;2023-08-30T13:34:50;2.88;;;0.90;;
30681;SDS011;17439;48.092;11.842;2023-08-30T13:37:17;3.45;;;1.05;;
30681;SDS011;17439;48.092;11.842;2023-08-30T13:39:44;2.38;;;0.93;;
30681;SDS011;17439;48.092;11.842;2023-08-30T13:42:10;0.50;;;0.50;;
30681;SDS011;17439;48.092;11.842;2023-08-30T13:44:37;2.45;;;0.95;;
30681;SDS011;17439;48.092;11.842;2023-08-30T13:47:04;1.33;;;0.80;;
30681;SDS011;17439;48.092;11.842;2023-08-30T13:49:31;2.90;;;0.70;;
30681;SDS011;17439;48.092;11.842;2023-08-30T13:51:58;1.15;;;0.70;;
30681;SDS011;17439;48.092;11.842;2023-08-30T13:54:25;3.65;;;1.15;;
30681;SDS011;17439;48.092;11.842;2023-08-30T13:56:52;0.60;;;0.60;;
30681;SDS011;17439;48.092;11.842;2023-08-30T13:59:19;1.02;;;0.93;;
30681;SDS011;17439;48.092;11.842;2023-08-30T14:01:45;1.63;;;1.05;;
30681;SDS011;17439;48.092;11.842;2023-08-30T14:04:12;3.67;;;1.88;;
30681;SDS011;17439;48.092;11.842;2023-08-30T14:06:39;1.10;;;1.00;;
30681;SDS011;17439;48.092;11.842;2023-08-30T14:09:06;1.58;;;1.25;;
30681;SDS011;17439;48.092;11.842;2023-08-30T14:11:32;0.98;;;0.70;;
30681;SDS011;17439;48.092;11.842;2023-08-30T14:13:59;0.77;;;0.70;;
30681;SDS011;17439;48.092;11.842;2023-08-30T14:16:26;1.23;;;1.10;;
30681;SDS011;17439;48.092;11.842;2023-08-30T14:18:53;1.45;;;0.82;;
30681;SDS011;17439;48.092;11.842;2023-08-30T14:21:19;0.88;;;0.73;;
30681;SDS011;17439;48.092;11.842;2023-08-30T14:23:46;1.05;;;0.95;;
30681;SDS011;17439;48.092;11.842;2023-08-30T14:26:13;1.13;;;0.70;;
30681;SDS011;17439;48.092;11.842;2023-08-30T14:28:39;1.95;;;1.23;;
30681;SDS011;17439;48.092;11.842;2023-08-30T14:31:07;5.60;;;0.95;;
30681;SDS011;17439;48.092;11.842;2023-08-30T14:33:35;0.80;;;0.70;;
30681;SDS011;17439;48.092;11.842;2023-08-30T14:36:03;2.00;;;1.23;;
30681;SDS011;17439;48.092;11.842;2023-08-30T14:38:34;0.95;;;0.80;;
30681;SDS011;17439;48.092;11.842;2023-08-30T14:41:01;2.60;;;1.27;;
30681;SDS011;17439;48.092;11.842;2023-08-30T14:43:27;2.25;;;0.90;;
30681;SDS011;17439;48.092;11.842;2023-08-30T14:46:02;0.98;;;0.82;;
30681;SDS011;17439;48.092;11.842;2023-08-30T14:48:38;2.03;;;1.15;;
30681;SDS011;17439;48.092;11.842;2023-08-30T14:53:32;1.48;;;1.20;;
30681;SDS011;17439;48.092;11.842;2023-08-30T14:55:59;4.00;;;1.40;;
30681;SDS011;17439;48.092;11.842;2023-08-30T14:58:26;1.67;;;1.58;;
30681;SDS011;17439;48.092;11.842;2023-08-30T15:00:53;3.55;;;1.85;;
30681;SDS011;17439;48.092;11.842;2023-08-30T15:03:20;3.30;;;2.42;;